Time;durP1;ratioP1;P1;durP2;ratioP2;P2;SDS_P1;SDS_P2;PMS_P1;PMS_P2;Temp;Humidity;BMP_temperature;BMP_pressure;BME280_temperature;BME280_humidity;BME280_pressure;Samples;Min_cycle;Max_cycle;Signal;HPM_P1;HPM_P2
2021/01/08 00:03:12;;;;;;;2.07;1.00;;;4.90;99.90;;;;;;20538007;28;20200;-70
2021/01/08 00:13:14;;;;;;;0.80;0.70;;;4.90;99.90;;;;;;20540169;28;20606;-68
2021/01/08 00:23:18;;;;;;;1.50;1.03;;;5.00;99.90;;;;;;20537775;28;20199;-69
2021/01/08 00:33:20;;;;;;;0.70;0.70;;;4.90;99.90;;;;;;20542443;28;20318;-68
2021/01/08 00:43:24;;;;;;;2.10;1.67;;;4.80;99.90;;;;;;20624361;28;20277;-68
2021/01/08 00:53:26;;;;;;;0.43;0.43;;;4.40;99.90;;;;;;20665976;28;20227;-68
2021/01/08 01:03:30;;;;;;;1.03;0.97;;;4.10;99.90;;;;;;20599954;28;20191;-68
2021/01/08 01:13:32;;;;;;;1.07;0.87;;;3.90;99.90;;;;;;20617370;28;20367;-69
2021/01/08 01:23:38;;;;;;;0.47;0.47;;;3.70;99.90;;;;;;20618301;28;20204;-68
2021/01/08 01:33:40;;;;;;;1.37;1.07;;;3.60;99.90;;;;;;20616893;28;20231;-68
2021/01/08 01:43:44;;;;;;;1.27;1.17;;;3.60;99.90;;;;;;20619959;28;20190;-68
2021/01/08 01:53:47;;;;;;;2.07;1.87;;;3.60;99.90;;;;;;20620336;28;20222;-69
2021/01/08 02:03:52;;;;;;;2.03;0.93;;;3.60;99.90;;;;;;20641541;23;20241;-77
2021/01/08 02:14:01;;;;;;;0.70;0.63;;;3.60;99.90;;;;;;20652225;28;20245;-77
2021/01/08 02:24:14;;;;;;;0.47;0.47;;;3.60;99.90;;;;;;20629743;28;20247;-75
2021/01/08 02:34:18;;;;;;;2.37;1.10;;;3.70;99.90;;;;;;20645768;28;20657;-79
2021/01/08 02:44:22;;;;;;;3.63;3.03;;;3.60;99.90;;;;;;20666880;28;20283;-76
2021/01/08 02:54:25;;;;;;;1.53;1.17;;;3.50;99.90;;;;;;20648616;28;20227;-76
2021/01/08 03:04:28;;;;;;;0.47;0.47;;;3.30;99.90;;;;;;20664108;28;20691;-75
2021/01/08 03:14:32;;;;;;;1.40;1.33;;;3.30;99.90;;;;;;20647868;28;20220;-77
2021/01/08 03:24:35;;;;;;;2.20;1.33;;;3.40;99.90;;;;;;20630764;28;20383;-76
2021/01/08 03:34:38;;;;;;;0.83;0.83;;;3.40;99.90;;;;;;20593792;28;20691;-73
2021/01/08 03:44:40;;;;;;;0.80;0.53;;;3.30;99.90;;;;;;20544662;28;20185;-74
2021/01/08 03:54:44;;;;;;;1.73;1.63;;;3.20;99.90;;;;;;20542769;28;20232;-75
2021/01/08 04:04:47;;;;;;;1.20;1.10;;;3.00;99.90;;;;;;20543195;28;20228;-75
2021/01/08 04:14:50;;;;;;;1.67;1.13;;;2.90;99.90;;;;;;20540747;28;20713;-75
2021/01/08 04:24:53;;;;;;;1.03;0.60;;;2.70;99.90;;;;;;20541697;28;20197;-78
2021/01/08 04:34:57;;;;;;;1.30;1.30;;;2.60;99.90;;;;;;20538030;28;20334;-78
2021/01/08 04:45:00;;;;;;;1.47;0.83;;;2.70;99.90;;;;;;20542288;28;20204;-77
2021/01/08 04:55:04;;;;;;;1.00;0.93;;;2.90;99.90;;;;;;20537280;28;20240;-73
2021/01/08 05:05:08;;;;;;;0.73;0.73;;;3.00;99.90;;;;;;20537343;28;20800;-74
2021/01/08 05:15:15;;;;;;;2.33;1.60;;;2.90;99.90;;;;;;20533722;28;20376;-76
2021/01/08 05:25:18;;;;;;;1.80;1.23;;;3.00;99.90;;;;;;20535076;28;20198;-73
2021/01/08 05:35:23;;;;;;;2.33;2.13;;;3.00;99.90;;;;;;20528405;28;20220;-75
2021/01/08 05:45:27;;;;;;;0.83;0.70;;;3.00;99.90;;;;;;20513871;28;20196;-73
2021/01/08 05:55:35;;;;;;;1.13;0.77;;;2.90;99.90;;;;;;20528679;28;20213;-74
2021/01/08 06:05:40;;;;;;;1.50;1.33;;;2.70;99.90;;;;;;20533519;28;20752;-75
2021/01/08 06:15:45;;;;;;;5.17;3.10;;;2.70;99.90;;;;;;20540191;28;20226;-76
2021/01/08 06:25:48;;;;;;;0.80;0.60;;;2.70;99.90;;;;;;20549336;28;20670;-77
2021/01/08 06:35:52;;;;;;;5.07;1.23;;;2.60;99.90;;;;;;20548189;28;20477;-74
2021/01/08 06:46:02;;;;;;;3.80;1.47;;;2.70;99.90;;;;;;20545560;28;20196;-76
2021/01/08 06:56:13;;;;;;;0.70;0.40;;;2.70;99.90;;;;;;20529147;28;20459;-72
2021/01/08 07:06:16;;;;;;;1.83;1.37;;;2.70;99.90;;;;;;20547310;28;20239;-73
2021/01/08 07:16:23;;;;;;;0.67;0.67;;;2.60;99.90;;;;;;20543794;28;20223;-73
2021/01/08 07:26:28;;;;;;;2.30;1.60;;;2.50;99.90;;;;;;20544386;28;20282;-73
2021/01/08 07:36:33;;;;;;;6.33;2.80;;;2.40;99.90;;;;;;20613110;28;20218;-74
2021/01/08 07:46:35;;;;;;;17.97;2.53;;;2.40;99.90;;;;;;20660348;28;20236;-73
2021/01/08 07:57:05;;;;;;;0.83;0.83;;;2.50;99.90;;;;;;20658616;28;20297;-78
2021/01/08 08:07:12;;;;;;;0.77;0.77;;;2.40;99.90;;;;;;20605720;28;20320;-74
2021/01/08 08:17:15;;;;;;;1.30;1.20;;;2.30;99.90;;;;;;20617807;28;20227;-74
2021/01/08 08:27:18;;;;;;;1.20;1.10;;;2.40;99.90;;;;;;20619436;28;20199;-77
2021/01/08 08:37:22;;;;;;;1.67;1.57;;;2.90;99.90;;;;;;20575358;23;21087;-74
2021/01/08 08:47:25;;;;;;;1.13;1.03;;;3.20;99.90;;;;;;20519639;28;20735;-77
2021/01/08 08:58:06;;;;;;;5.13;1.83;;;3.60;99.90;;;;;;20516242;28;20326;-75
2021/01/08 09:08:19;;;;;;;1.60;1.17;;;3.90;99.90;;;;;;20534924;28;20192;-71
2021/01/08 09:18:34;;;;;;;1.67;1.57;;;4.10;99.90;;;;;;20534618;28;20253;-76
2021/01/08 09:28:42;;;;;;;2.67;1.50;;;4.30;99.90;;;;;;20515165;28;20192;-74
2021/01/08 09:38:50;;;;;;;4.37;2.93;;;4.50;99.90;;;;;;20546309;28;20262;-73
2021/01/08 09:48:53;;;;;;;53.10;5.70;;;4.80;99.90;;;;;;20594911;28;20192;-74
2021/01/08 09:59:17;;;;;;;5.07;3.53;;;5.20;99.90;;;;;;20610119;28;20230;-75
2021/01/08 10:09:21;;;;;;;1.80;1.37;;;5.80;99.90;;;;;;20609627;28;20560;-74
2021/01/08 10:19:32;;;;;;;8.30;2.10;;;6.50;99.90;;;;;;20611857;28;20305;-74
2021/01/08 10:29:39;;;;;;;0.87;0.87;;;6.80;99.90;;;;;;20589437;28;20266;-75
2021/01/08 10:39:44;;;;;;;3.37;2.03;;;7.30;99.90;;;;;;20603778;28;20227;-75
2021/01/08 10:49:48;;;;;;;1.60;1.33;;;7.80;99.90;;;;;;20611161;28;20347;-76
2021/01/08 11:00:16;;;;;;;2.93;1.73;;;8.00;99.90;;;;;;20596714;28;20231;-76
2021/01/08 11:10:19;;;;;;;2.97;2.73;;;7.50;99.90;;;;;;20624601;28;20471;-77
2021/01/08 11:20:23;;;;;;;1.43;1.33;;;7.60;99.90;;;;;;20623460;28;20227;-73
2021/01/08 11:30:26;;;;;;;1.80;1.60;;;7.40;99.90;;;;;;20623680;28;20505;-74
2021/01/08 11:40:36;;;;;;;5.70;2.57;;;7.50;99.90;;;;;;20620070;28;20787;-76
2021/01/08 11:50:40;;;;;;;3.40;2.43;;;7.40;99.90;;;;;;20614381;28;20218;-76
2021/01/08 12:00:45;;;;;;;2.13;1.43;;;7.40;99.90;;;;;;20617264;28;20223;-73
2021/01/08 12:10:49;;;;;;;2.77;2.57;;;7.20;99.90;;;;;;20620313;28;20602;-75
2021/01/08 12:21:34;;;;;;;5.87;2.50;;;7.70;99.90;;;;;;20617390;28;20277;-75
2021/01/08 12:31:38;;;;;;;2.53;1.43;;;8.10;99.90;;;;;;20614818;23;20681;-67
2021/01/08 12:41:40;;;;;;;4.33;1.87;;;9.70;99.90;;;;;;20616554;28;20231;-68
2021/01/08 12:51:49;;;;;;;3.17;1.23;;;9.90;99.90;;;;;;20611089;28;20192;-69
2021/01/08 13:01:56;;;;;;;1.83;1.73;;;10.30;99.90;;;;;;20596512;28;20250;-69
2021/01/08 13:12:00;;;;;;;2.57;2.30;;;9.70;99.90;;;;;;20611423;28;20527;-67
2021/01/08 13:22:03;;;;;;;1.70;1.60;;;10.20;99.90;;;;;;20614129;28;20700;-70
2021/01/08 13:32:07;;;;;;;4.00;1.80;;;11.00;99.90;;;;;;20593242;28;20748;-68
2021/01/08 13:42:11;;;;;;;11.57;3.13;;;10.20;99.90;;;;;;20611074;28;20345;-68
2021/01/08 13:52:14;;;;;;;7.80;2.57;;;10.20;99.90;;;;;;20612096;28;20231;-69
2021/01/08 14:02:17;;;;;;;2.70;2.17;;;9.70;99.90;;;;;;20593800;28;20223;-69
2021/01/08 14:12:20;;;;;;;2.27;2.07;;;9.40;99.90;;;;;;20611729;28;20195;-69
2021/01/08 14:22:23;;;;;;;10.63;2.13;;;9.30;99.90;;;;;;20611055;28;20255;-68
2021/01/08 14:32:26;;;;;;;3.50;3.07;;;9.40;99.90;;;;;;20595631;28;20370;-71
2021/01/08 14:42:30;;;;;;;2.77;2.13;;;9.70;99.90;;;;;;20627854;28;20237;-69
2021/01/08 14:52:34;;;;;;;2.87;2.57;;;9.60;99.90;;;;;;20623047;28;20203;-69
2021/01/08 15:02:36;;;;;;;1.80;1.47;;;9.70;99.90;;;;;;20618201;28;20234;-67
2021/01/08 15:12:40;;;;;;;3.23;2.57;;;9.50;99.90;;;;;;20622334;28;20198;-69
2021/01/08 15:22:42;;;;;;;4.43;2.40;;;8.80;99.90;;;;;;20624396;28;20330;-69
2021/01/08 15:32:46;;;;;;;2.13;1.83;;;8.90;99.90;;;;;;20620904;28;20259;-69
2021/01/08 15:42:49;;;;;;;2.23;1.07;;;8.70;99.90;;;;;;20622505;28;21040;-69
2021/01/08 15:52:53;;;;;;;10.50;2.80;;;8.40;99.90;;;;;;20617475;28;20526;-69
2021/01/08 16:02:55;;;;;;;11.67;1.97;;;8.40;99.90;;;;;;20601875;28;20234;-68
2021/01/08 16:13:00;;;;;;;1.77;1.67;;;7.80;99.90;;;;;;20599317;28;20200;-68
2021/01/08 16:23:03;;;;;;;4.60;2.70;;;7.70;99.90;;;;;;20601959;28;20377;-68
2021/01/08 16:33:06;;;;;;;3.07;1.97;;;7.60;99.90;;;;;;20614310;28;21210;-68
2021/01/08 16:43:09;;;;;;;5.90;4.03;;;7.40;99.90;;;;;;20615785;28;20235;-69
2021/01/08 16:53:34;;;;;;;3.07;1.57;;;7.40;99.90;;;;;;20614469;28;20199;-68
2021/01/08 17:03:36;;;;;;;4.27;2.67;;;7.30;99.90;;;;;;20612924;28;20246;-69
2021/01/08 17:13:40;;;;;;;5.63;3.27;;;7.10;99.90;;;;;;20612730;28;20641;-68
2021/01/08 17:23:43;;;;;;;4.20;2.63;;;7.20;99.90;;;;;;20594079;28;20223;-68
2021/01/08 17:33:47;;;;;;;1.90;1.63;;;7.00;99.90;;;;;;20574647;28;20234;-67
2021/01/08 17:43:50;;;;;;;7.50;2.73;;;7.00;99.90;;;;;;20562117;28;20701;-67
2021/01/08 17:53:54;;;;;;;5.37;2.97;;;7.00;99.90;;;;;;20618295;28;20249;-67
2021/01/08 18:03:56;;;;;;;1.60;1.03;;;6.80;99.90;;;;;;20614008;28;20306;-67
2021/01/08 18:14:00;;;;;;;1.40;0.80;;;6.70;99.90;;;;;;20627119;28;20219;-67
2021/01/08 18:24:03;;;;;;;0.60;0.60;;;6.60;99.90;;;;;;20627577;28;20234;-67
2021/01/08 18:34:07;;;;;;;1.17;1.07;;;6.50;99.90;;;;;;20625667;28;20246;-65
2021/01/08 18:44:10;;;;;;;1.53;1.43;;;6.70;99.90;;;;;;20632731;28;20215;-67
2021/01/08 18:54:14;;;;;;;2.03;1.93;;;6.90;99.90;;;;;;20645336;28;20363;-66
2021/01/08 19:04:20;;;;;;;3.10;0.50;;;6.90;99.90;;;;;;20639055;28;20223;-66
2021/01/08 19:14:26;;;;;;;1.10;0.60;;;7.20;99.90;;;;;;20621224;28;20296;-69
2021/01/08 19:24:32;;;;;;;0.80;0.80;;;7.20;99.90;;;;;;20616600;28;20326;-67
2021/01/08 19:34:39;;;;;;;1.43;1.03;;;7.10;99.90;;;;;;20615925;28;20230;-68
2021/01/08 19:44:42;;;;;;;0.70;0.70;;;6.80;99.90;;;;;;20619193;28;20507;-67
2021/01/08 19:54:47;;;;;;;1.10;1.00;;;6.90;99.90;;;;;;20599958;28;20199;-67
2021/01/08 20:04:49;;;;;;;1.97;1.03;;;6.90;99.90;;;;;;20622385;28;20218;-67
2021/01/08 20:14:53;;;;;;;0.63;0.57;;;6.80;99.90;;;;;;20617410;28;20195;-67
2021/01/08 20:24:56;;;;;;;2.83;0.87;;;6.80;99.90;;;;;;20602919;28;20211;-67
2021/01/08 20:34:59;;;;;;;4.20;1.87;;;7.00;99.90;;;;;;20614950;28;20310;-65
2021/01/08 20:45:02;;;;;;;3.13;1.13;;;6.90;99.90;;;;;;20616088;28;20198;-68
2021/01/08 20:55:07;;;;;;;0.30;0.30;;;6.70;99.90;;;;;;20599359;28;20714;-65
2021/01/08 21:05:11;;;;;;;3.07;1.87;;;6.60;99.90;;;;;;20615447;28;20215;-66
2021/01/08 21:15:19;;;;;;;1.63;1.53;;;6.70;99.90;;;;;;20614812;28;20219;-67
2021/01/08 21:25:22;;;;;;;1.03;0.87;;;6.40;99.90;;;;;;20616054;28;20203;-69
2021/01/08 21:35:26;;;;;;;0.93;0.93;;;6.50;99.90;;;;;;20613690;28;20239;-68
2021/01/08 21:45:28;;;;;;;1.33;1.20;;;6.20;99.90;;;;;;20615576;28;20290;-68
2021/01/08 21:55:32;;;;;;;1.33;0.83;;;6.30;99.90;;;;;;20600674;28;20233;-68
2021/01/08 22:05:36;;;;;;;1.07;1.07;;;6.40;99.90;;;;;;20619524;28;20380;-67
2021/01/08 22:15:40;;;;;;;1.60;1.50;;;6.30;99.90;;;;;;20612447;28;20577;-69
2021/01/08 22:25:43;;;;;;;1.03;1.03;;;6.00;99.90;;;;;;20615409;28;20530;-68
2021/01/08 22:35:47;;;;;;;0.97;0.73;;;6.10;99.90;;;;;;20486146;28;20229;-69
2021/01/08 22:45:49;;;;;;;2.57;1.17;;;6.50;99.90;;;;;;20453078;29;20696;-68
2021/01/08 22:55:53;;;;;;;2.57;0.93;;;6.50;99.90;;;;;;20453824;28;20221;-69
2021/01/08 23:05:56;;;;;;;0.93;0.60;;;6.60;99.90;;;;;;20448832;29;20387;-69
2021/01/08 23:15:59;;;;;;;0.80;0.70;;;6.60;99.90;;;;;;20466049;29;20221;-69
2021/01/08 23:26:02;;;;;;;1.77;1.40;;;6.50;99.90;;;;;;20467534;29;20505;-69
2021/01/08 23:36:07;;;;;;;0.30;0.30;;;6.60;99.90;;;;;;20494158;28;20228;-69
2021/01/08 23:46:09;;;;;;;1.60;1.50;;;6.60;99.90;;;;;;20545903;28;20207;-69
2021/01/08 23:56:20;;;;;;;1.90;0.50;;;6.60;99.90;;;;;;20541758;28;20230;-69
